sensor_id;sensor_type;location;lat;lon;timestamp;pressure;altitude;pressure_sealevel;temperature;humidity
63535;BME280;55128;50.230;18.944;2023-05-09T18:31:25;98788.00;;;13.49;38.43
63535;BME280;55128;50.230;18.944;2023-05-09T18:36:25;98793.19;;;13.18;38.97
63535;BME280;55128;50.230;18.944;2023-05-09T18:41:28;98791.41;;;13.01;39.57
63535;BME280;55128;50.230;18.944;2023-05-09T18:46:30;98791.66;;;12.97;39.65
63535;BME280;55128;50.230;18.944;2023-05-09T18:51:32;98803.31;;;12.78;40.10
63535;BME280;55128;50.230;18.944;2023-05-09T18:56:34;98801.34;;;12.64;40.71
63535;BME280;55128;50.230;18.944;2023-05-09T19:01:38;98797.09;;;12.60;40.78
63535;BME280;55128;50.230;18.944;2023-05-09T19:06:40;98801.28;;;12.49;41.25
63535;BME280;55128;50.230;18.944;2023-05-09T19:11:41;98793.91;;;12.36;41.82
63535;BME280;55128;50.230;18.944;2023-05-09T19:16:42;98805.63;;;12.32;41.68
63535;BME280;55128;50.230;18.944;2023-05-09T19:21:42;98801.50;;;12.27;41.80
63535;BME280;55128;50.230;18.944;2023-05-09T19:26:42;98796.56;;;12.19;41.74
63535;BME280;55128;50.230;18.944;2023-05-09T19:31:43;98785.56;;;12.08;42.28
63535;BME280;55128;50.230;18.944;2023-05-09T19:36:43;98788.69;;;11.98;42.74
63535;BME280;55128;50.230;18.944;2023-05-09T19:41:44;98786.09;;;11.78;43.50
63535;BME280;55128;50.230;18.944;2023-05-09T19:46:45;98799.25;;;11.81;43.08
63535;BME280;55128;50.230;18.944;2023-05-09T19:51:45;98789.91;;;11.72;43.17
63535;BME280;55128;50.230;18.944;2023-05-09T19:56:46;98787.63;;;11.64;43.16
63535;BME280;55128;50.230;18.944;2023-05-09T20:01:46;98781.47;;;11.64;43.67
63535;BME280;55128;50.230;18.944;2023-05-09T20:06:47;98781.47;;;11.64;43.33
63535;BME280;55128;50.230;18.944;2023-05-09T20:11:47;98792.09;;;11.64;43.50
63535;BME280;55128;50.230;18.944;2023-05-09T20:16:47;98781.34;;;11.65;43.61
63535;BME280;55128;50.230;18.944;2023-05-09T20:21:48;98782.97;;;11.51;44.69
63535;BME280;55128;50.230;18.944;2023-05-09T20:26:49;98780.47;;;11.28;44.72
63535;BME280;55128;50.230;18.944;2023-05-09T20:31:50;98773.41;;;11.27;44.54
63535;BME280;55128;50.230;18.944;2023-05-09T20:36:50;98778.44;;;11.34;44.75
63535;BME280;55128;50.230;18.944;2023-05-09T20:41:54;98775.94;;;11.31;44.52
63535;BME280;55128;50.230;18.944;2023-05-09T20:46:55;98772.59;;;11.06;45.21
63535;BME280;55128;50.230;18.944;2023-05-09T20:51:55;98773.53;;;11.05;45.64
63535;BME280;55128;50.230;18.944;2023-05-09T20:56:55;98773.06;;;10.96;45.57
63535;BME280;55128;50.230;18.944;2023-05-09T21:01:56;98770.59;;;10.93;45.87
63535;BME280;55128;50.230;18.944;2023-05-09T21:06:56;98770.59;;;10.93;46.06
63535;BME280;55128;50.230;18.944;2023-05-09T21:11:58;98763.88;;;10.84;46.32
63535;BME280;55128;50.230;18.944;2023-05-09T21:16:59;98760.97;;;10.69;46.45
63535;BME280;55128;50.230;18.944;2023-05-09T21:22:00;98759.25;;;10.68;46.47
63535;BME280;55128;50.230;18.944;2023-05-09T21:27:00;98747.91;;;10.65;46.96
63535;BME280;55128;50.230;18.944;2023-05-09T21:32:00;98746.44;;;10.58;46.93
63535;BME280;55128;50.230;18.944;2023-05-09T21:37:01;98754.69;;;10.72;46.94
63535;BME280;55128;50.230;18.944;2023-05-09T21:42:01;98755.25;;;10.58;47.35
63535;BME280;55128;50.230;18.944;2023-05-09T21:47:02;98758.41;;;10.68;47.02
63535;BME280;55128;50.230;18.944;2023-05-09T21:52:02;98753.34;;;10.62;47.59
63535;BME280;55128;50.230;18.944;2023-05-09T21:57:03;98746.19;;;10.43;47.98
63535;BME280;55128;50.230;18.944;2023-05-09T22:02:03;98747.53;;;10.33;48.29
63535;BME280;55128;50.230;18.944;2023-05-09T22:07:04;98756.03;;;10.19;49.46
63535;BME280;55128;50.230;18.944;2023-05-09T22:12:05;98749.81;;;9.98;49.71
63535;BME280;55128;50.230;18.944;2023-05-09T22:17:05;98753.00;;;9.86;50.11
63535;BME280;55128;50.230;18.944;2023-05-09T22:22:06;98743.31;;;9.85;50.05
63535;BME280;55128;50.230;18.944;2023-05-09T22:27:07;98735.81;;;9.95;49.92
63535;BME280;55128;50.230;18.944;2023-05-09T22:32:08;98732.22;;;9.75;50.84
63535;BME280;55128;50.230;18.944;2023-05-09T22:37:08;98729.13;;;9.86;50.05
63535;BME280;55128;50.230;18.944;2023-05-09T22:42:09;98731.31;;;9.76;50.87
63535;BME280;55128;50.230;18.944;2023-05-09T22:47:10;98731.78;;;9.64;51.12
63535;BME280;55128;50.230;18.944;2023-05-09T22:52:10;98728.28;;;9.63;51.00
63535;BME280;55128;50.230;18.944;2023-05-09T22:57:11;98727.97;;;9.49;52.01
63535;BME280;55128;50.230;18.944;2023-05-09T23:02:11;98723.63;;;9.48;51.80
63535;BME280;55128;50.230;18.944;2023-05-09T23:07:12;98729.19;;;9.62;51.52
63535;BME280;55128;50.230;18.944;2023-05-09T23:12:13;98727.88;;;9.52;51.78
63535;BME280;55128;50.230;18.944;2023-05-09T23:17:13;98716.09;;;9.37;52.21
63535;BME280;55128;50.230;18.944;2023-05-09T23:22:14;98714.47;;;9.33;52.32
63535;BME280;55128;50.230;18.944;2023-05-09T23:27:15;98715.66;;;9.26;52.38
63535;BME280;55128;50.230;18.944;2023-05-09T23:32:15;98707.66;;;9.27;52.50
63535;BME280;55128;50.230;18.944;2023-05-09T23:37:15;98712.56;;;9.14;53.15
63535;BME280;55128;50.230;18.944;2023-05-09T23:42:16;98703.16;;;9.06;53.25
63535;BME280;55128;50.230;18.944;2023-05-09T23:47:16;98705.38;;;8.94;54.01
63535;BME280;55128;50.230;18.944;2023-05-09T23:52:16;98703.34;;;8.54;55.90
63535;BME280;55128;50.230;18.944;2023-05-09T23:57:17;98697.34;;;8.49;55.93
